South Albemarle, North Carolina
Current Conditions -  °F | °C
As of 11:15 PM on Tuesday 21 Oct 2014 (Local Time) from KVUJ Reporting Station
Scattered Clouds Scattered Clouds  
Wind Chill: 57°   Ceiling: Unl
Heat Index: 57°   Visibility: 10mi
Dew Point: 40°   Wind: 8mph
Humidity: 54%   Direction: 10°N
Pressure: 30.02"   Gusts: 17mph
Location:  35.3503°N, 80.2174°W
Report Text: KVUJ 220315Z AUTO 01007G15KT 10SM SCT090 14/05 A3002 RMK AO2 LTG DSNT E T01370045
Loading
Personal Weather Stations






























Interactive Weather Map
Tropical Storm Tracking
New forecast layout! Learn more

10-Day Weather Forecast

Advertisements
Track Severe Weather on mobile